Time;durP1;ratioP1;P1;durP2;ratioP2;P2;SDS_P1;SDS_P2;PMS_P1;PMS_P2;Temp;Humidity;BMP_temperature;BMP_pressure;BME280_temperature;BME280_humidity;BME280_pressure;Samples;Min_cycle;Max_cycle;Signal;HPM_P1;HPM_P2
2024/03/11 00:00:59;;;;;;;12.80;8.50;;;;;;;8.69;87.51;98982.68;129063;1251;127848;-69
2024/03/11 00:04:20;;;;;;;13.60;9.20;;;;;;;8.70;87.58;98977.45;129446;1255;113147;-64
2024/03/11 00:07:30;;;;;;;9.50;5.50;;;;;;;8.72;87.51;98974.29;129125;1256;113288;-71
2024/03/11 00:10:40;;;;;;;13.00;8.60;;;;;;;8.73;87.76;98974.75;129337;1251;113806;-72
2024/03/11 00:13:48;;;;;;;11.80;7.70;;;;;;;8.75;87.65;98976.63;129293;1253;113937;-72
2024/03/11 00:16:53;;;;;;;10.70;8.20;;;;;;;8.76;87.45;98972.41;132885;1251;128807;-70
2024/03/11 00:19:58;;;;;;;11.20;7.50;;;;;;;8.79;87.35;98973.66;129259;1251;115368;-73
2024/03/11 00:23:05;;;;;;;11.60;6.90;;;;;;;8.81;87.49;98971.59;129394;1254;113841;-72
2024/03/11 00:26:13;;;;;;;12.80;8.60;;;;;;;8.82;87.07;98968.48;129461;1256;113171;-62
2024/03/11 00:29:21;;;;;;;8.90;5.70;;;;;;;8.84;87.02;98969.23;129035;1256;114049;-62
2024/03/11 00:32:27;;;;;;;13.90;7.80;;;;;;;8.86;87.37;98966.45;129277;1254;128814;-62
2024/03/11 00:35:32;;;;;;;11.00;7.90;;;;;;;8.88;87.27;98961.55;128958;1256;114732;-62
2024/03/11 00:38:39;;;;;;;12.10;7.30;;;;;;;8.89;87.23;98958.05;128861;1255;113561;-62
2024/03/11 00:41:46;;;;;;;9.80;6.30;;;;;;;8.91;87.00;98956.35;128937;1256;114256;-63
2024/03/11 00:44:57;;;;;;;8.80;6.20;;;;;;;8.92;87.36;98951.10;128890;1251;113413;-62
2024/03/11 00:47:59;;;;;;;9.70;5.50;;;;;;;8.92;87.24;98952.15;131987;1254;129098;-65
2024/03/11 00:51:06;;;;;;;11.80;6.80;;;;;;;8.94;87.04;98954.91;128755;1259;114731;-61
2024/03/11 00:54:12;;;;;;;14.10;8.50;;;;;;;8.95;86.92;98955.89;128807;1255;113204;-62
2024/03/11 00:57:16;;;;;;;10.80;7.30;;;;;;;8.96;86.88;98957.09;128881;1251;113324;-62
2024/03/11 01:00:22;;;;;;;12.40;8.70;;;;;;;8.94;86.92;98955.20;128764;1251;113230;-63
2024/03/11 01:03:29;;;;;;;15.60;8.90;;;;;;;8.94;86.81;98956.29;128716;1251;127851;-62
2024/03/11 01:06:37;;;;;;;14.30;7.10;;;;;;;8.93;87.29;98954.59;128741;1251;114800;-62
2024/03/11 01:09:40;;;;;;;12.60;8.10;;;;;;;8.93;86.93;98959.03;128195;1251;1991600;-63
2024/03/11 01:12:45;;;;;;;10.60;6.30;;;;;;;8.93;86.98;98956.77;128753;1251;113587;-62
2024/03/11 01:15:52;;;;;;;13.00;7.90;;;;;;;8.93;87.02;98953.35;128880;1251;113340;-63
2024/03/11 01:18:58;;;;;;;12.50;8.30;;;;;;;8.93;86.91;98952.67;131727;1255;127975;-62
2024/03/11 01:22:03;;;;;;;10.00;6.30;;;;;;;8.93;87.01;98949.64;132015;1251;114776;-68
2024/03/11 01:25:06;;;;;;;10.80;7.40;;;;;;;8.94;87.06;98948.81;132078;1251;114145;-63
2024/03/11 01:28:12;;;;;;;12.50;9.10;;;;;;;8.94;87.22;98944.06;129541;1255;115310;-63
2024/03/11 01:31:23;;;;;;;8.70;6.00;;;;;;;8.93;86.74;98938.41;129627;1250;113368;-63
2024/03/11 01:34:31;;;;;;;10.60;7.40;;;;;;;8.93;86.81;98936.99;129247;1253;127669;-62
2024/03/11 01:37:36;;;;;;;11.20;7.90;;;;;;;8.90;86.88;98921.36;129059;1255;114706;-62
2024/03/11 01:40:43;;;;;;;12.10;7.70;;;;;;;8.89;86.72;98921.77;129038;1256;113529;-62
2024/03/11 01:43:49;;;;;;;13.60;7.70;;;;;;;8.85;86.75;98917.59;128973;1251;113250;-62
2024/03/11 01:46:56;;;;;;;10.90;6.50;;;;;;;8.79;86.63;98911.31;129246;1257;114428;-62
2024/03/11 01:50:07;;;;;;;10.70;5.80;;;;;;;8.75;86.67;98910.88;129162;1253;127758;-63
2024/03/11 01:53:14;;;;;;;15.00;8.50;;;;;;;8.68;86.77;98906.18;129075;1253;114782;-63
2024/03/11 01:56:22;;;;;;;13.00;7.70;;;;;;;8.62;86.56;98905.27;128976;1256;113336;-63
2024/03/11 01:59:29;;;;;;;9.70;6.30;;;;;;;8.57;86.83;98903.17;129226;1255;113263;-62
2024/03/11 02:02:41;;;;;;;12.90;8.40;;;;;;;8.51;87.06;98897.48;129364;1251;113634;-63
2024/03/11 02:05:53;;;;;;;11.60;8.00;;;;;;;8.46;86.98;98899.92;129062;1256;128801;-63
2024/03/11 02:09:04;;;;;;;12.20;7.60;;;;;;;8.41;87.21;98894.34;129096;1251;115304;-63
2024/03/11 02:12:17;;;;;;;;;;;;;;;8.37;87.15;98897.59;129119;1251;114183;-63
2024/03/11 02:15:27;;;;;;;11.50;7.10;;;;;;;8.31;87.26;98897.77;129051;1252;114615;-63
2024/03/11 02:18:29;;;;;;;12.40;8.70;;;;;;;8.28;87.20;98900.65;131912;1251;113136;-73
2024/03/11 02:21:35;;;;;;;12.90;8.00;;;;;;;8.25;87.72;98896.95;129430;1254;113246;-64
2024/03/11 02:24:41;;;;;;;12.50;8.60;;;;;;;8.22;87.65;98896.77;129113;1255;115461;-62
2024/03/11 02:27:47;;;;;;;14.40;8.70;;;;;;;8.18;87.77;98889.34;132039;1251;114680;-64
2024/03/11 02:30:53;;;;;;;11.00;7.70;;;;;;;8.16;87.50;98891.25;129157;1256;114032;-63
2024/03/11 02:34:00;;;;;;;9.70;6.20;;;;;;;8.13;87.83;98892.70;129097;1255;114684;-63
2024/03/11 02:37:11;;;;;;;14.10;9.00;;;;;;;8.11;87.89;98896.23;131926;1251;128150;-69
2024/03/11 02:40:19;;;;;;;10.90;7.90;;;;;;;8.10;88.07;98898.95;132034;1251;114752;-64
2024/03/11 02:43:26;;;;;;;13.40;9.20;;;;;;;8.09;88.31;98900.80;128970;1254;113227;-63
2024/03/11 02:46:33;;;;;;;14.50;9.50;;;;;;;8.09;88.27;98907.69;128965;1251;114034;-62
2024/03/11 02:49:38;;;;;;;14.80;9.10;;;;;;;8.10;88.26;98913.17;129446;1251;114811;-65
2024/03/11 02:52:44;;;;;;;11.20;7.40;;;;;;;8.11;88.37;98915.05;128975;1256;127773;-62
2024/03/11 02:55:52;;;;;;;10.90;6.50;;;;;;;8.13;88.11;98916.91;128822;1251;115383;-64
2024/03/11 02:58:54;;;;;;;12.70;7.90;;;;;;;8.14;88.27;98920.92;132031;1251;114688;-68
2024/03/11 03:02:00;;;;;;;10.90;7.80;;;;;;;8.15;88.22;98920.47;128891;1251;114684;-62
2024/03/11 03:05:05;;;;;;;12.80;8.70;;;;;;;8.17;88.29;98924.27;128964;1255;114680;-65
2024/03/11 03:08:15;;;;;;;12.90;7.10;;;;;;;8.19;88.40;98926.11;128859;1251;128272;-66
2024/03/11 03:11:19;;;;;;;11.50;7.40;;;;;;;8.21;88.35;98925.63;128976;1254;114708;-64
2024/03/11 03:14:25;;;;;;;11.00;7.20;;;;;;;8.23;88.43;98925.55;129244;1251;114578;-63
2024/03/11 03:17:33;;;;;;;10.10;6.90;;;;;;;8.25;88.32;98928.05;129045;1254;113245;-62
2024/03/11 03:20:38;;;;;;;11.80;8.20;;;;;;;8.27;88.25;98925.13;128997;1256;114463;-67
2024/03/11 03:23:43;;;;;;;9.60;6.90;;;;;;;8.29;88.11;98927.08;129479;1256;129015;-72
2024/03/11 03:26:50;;;;;;;12.90;7.70;;;;;;;8.32;88.23;98929.76;129131;1257;114935;-62
2024/03/11 03:29:55;;;;;;;11.70;6.60;;;;;;;8.36;88.23;98935.23;129066;1255;114019;-62
2024/03/11 03:33:01;;;;;;;10.10;7.10;;;;;;;8.40;88.24;98933.73;129097;1251;114703;-62
2024/03/11 03:36:18;;;;;;;9.60;6.80;;;;;;;8.44;88.48;98940.96;129028;1256;114728;-61
2024/03/11 03:39:30;;;;;;;10.40;7.20;;;;;;;8.48;88.20;98936.61;128943;1255;128946;-62
2024/03/11 03:42:41;;;;;;;10.40;6.80;;;;;;;8.53;87.91;98936.67;128986;1256;115406;-62
2024/03/11 03:45:53;;;;;;;9.90;7.40;;;;;;;8.57;88.04;98935.73;128848;1251;114747;-62
2024/03/11 03:48:56;;;;;;;12.50;7.00;;;;;;;8.62;87.81;98930.96;131748;1251;114831;-62
2024/03/11 03:52:03;;;;;;;8.30;5.70;;;;;;;8.66;87.72;98932.80;128772;1255;114029;-61
2024/03/11 03:55:11;;;;;;;8.80;6.40;;;;;;;8.70;88.08;98931.52;128923;1254;128664;-62
2024/03/11 03:58:17;;;;;;;9.30;6.00;;;;;;;8.74;87.62;98930.92;129056;1256;114868;-63
2024/03/11 04:01:24;;;;;;;6.60;4.10;;;;;;;8.77;87.62;98929.14;128857;1256;113351;-62
2024/03/11 04:04:30;;;;;;;8.60;6.50;;;;;;;8.80;87.49;98923.59;128820;1255;113398;-61
2024/03/11 04:07:34;;;;;;;;;;;;;;;8.83;87.37;98924.63;128812;1250;113194;-62
2024/03/11 04:10:44;;;;;;;11.50;6.70;;;;;;;8.85;87.27;98930.89;128761;1257;128931;-61
2024/03/11 04:13:51;;;;;;;8.40;5.70;;;;;;;8.89;87.22;98926.92;128894;1251;114746;-62
2024/03/11 04:16:58;;;;;;;11.40;7.20;;;;;;;8.90;87.06;98926.49;128967;1255;113168;-63
2024/03/11 04:20:10;;;;;;;9.80;6.80;;;;;;;8.94;87.07;98938.68;128984;1250;113218;-62
2024/03/11 04:23:22;;;;;;;5.90;3.70;;;;;;;8.95;86.91;98937.77;128845;1255;113289;-62
2024/03/11 04:26:29;;;;;;;;;;;;;;;8.95;86.89;98939.85;128873;1255;128324;-64
2024/03/11 04:29:41;;;;;;;9.20;6.30;;;;;;;8.96;86.72;98939.11;129315;1258;116027;-62
2024/03/11 04:32:53;;;;;;;8.80;6.00;;;;;;;8.97;86.79;98943.11;129064;1256;113386;-63
2024/03/11 04:35:58;;;;;;;8.70;5.50;;;;;;;8.99;86.67;98949.09;131919;1251;114569;-63
2024/03/11 04:39:06;;;;;;;11.00;6.50;;;;;;;9.00;86.76;98949.71;129700;1251;114642;-63
2024/03/11 04:42:10;;;;;;;8.40;5.30;;;;;;;9.03;86.75;98952.00;131793;1251;126850;-63
2024/03/11 04:45:21;;;;;;;7.30;4.90;;;;;;;9.07;86.65;98957.47;128857;1256;113209;-64
2024/03/11 04:48:26;;;;;;;6.80;4.70;;;;;;;9.10;86.46;98956.37;128824;1256;114637;-63
2024/03/11 04:51:30;;;;;;;7.80;5.60;;;;;;;9.14;86.47;98959.66;131999;1251;113774;-63
2024/03/11 04:54:40;;;;;;;9.00;6.70;;;;;;;9.17;86.51;98967.30;129044;1256;114035;-62
2024/03/11 04:57:47;;;;;;;9.70;6.00;;;;;;;9.21;86.40;98970.44;128830;1256;127845;-62
2024/03/11 05:00:54;;;;;;;8.20;5.80;;;;;;;9.24;86.37;98976.10;129026;1256;114692;-63
2024/03/11 05:04:04;;;;;;;9.70;7.00;;;;;;;9.27;86.18;98978.80;128978;1251;114644;-66
2024/03/11 05:07:09;;;;;;;10.90;6.60;;;;;;;9.32;86.15;98987.22;129098;1251;113221;-65
2024/03/11 05:10:14;;;;;;;7.80;5.70;;;;;;;9.36;86.05;98987.32;128888;1255;113344;-63
2024/03/11 05:13:17;;;;;;;10.70;6.90;;;;;;;9.38;85.88;98990.16;128894;1257;126848;-64
2024/03/11 05:16:21;;;;;;;9.10;6.00;;;;;;;9.41;86.11;98994.27;128976;1273;114776;-62
2024/03/11 05:19:30;;;;;;;10.10;5.40;;;;;;;9.42;85.96;98990.59;128790;1255;114683;-63
2024/03/11 05:22:33;;;;;;;10.00;6.90;;;;;;;9.44;85.72;98992.11;132043;1251;113280;-66
2024/03/11 05:25:39;;;;;;;;;;;;;;;9.46;85.78;98994.49;131995;1251;113487;-63
2024/03/11 05:28:44;;;;;;;8.80;6.00;;;;;;;9.46;85.84;98988.95;128801;1251;114721;-63
2024/03/11 05:31:50;;;;;;;9.70;6.20;;;;;;;9.46;85.76;98986.63;128752;1251;114930;-63
2024/03/11 05:34:58;;;;;;;7.30;4.70;;;;;;;9.45;85.49;98979.76;131936;1255;114728;-66
2024/03/11 05:38:01;;;;;;;11.00;6.50;;;;;;;9.44;85.84;98983.58;131974;1251;114734;-63
2024/03/11 05:41:04;;;;;;;8.90;6.60;;;;;;;9.42;85.88;98985.09;131942;1251;113898;-63
2024/03/11 05:44:11;;;;;;;8.70;5.90;;;;;;;9.42;85.55;98987.56;130049;1255;127681;-62
2024/03/11 05:47:18;;;;;;;10.20;6.80;;;;;;;9.43;85.70;98994.13;128850;1251;115282;-62
2024/03/11 05:50:26;;;;;;;12.00;7.80;;;;;;;9.45;85.88;98999.69;128792;1256;113668;-63
2024/03/11 05:53:34;;;;;;;12.90;7.00;;;;;;;9.48;85.76;99004.13;129064;1253;113366;-64
2024/03/11 05:56:38;;;;;;;9.80;6.70;;;;;;;9.53;85.74;99006.13;128905;1256;114424;-65
2024/03/11 05:59:43;;;;;;;8.90;5.60;;;;;;;9.55;85.78;99010.25;128975;1251;128699;-64
2024/03/11 06:02:50;;;;;;;10.50;7.40;;;;;;;9.58;85.61;99014.89;129411;1251;114801;-66
2024/03/11 06:05:56;;;;;;;10.20;6.40;;;;;;;9.61;85.67;99016.15;129314;1258;113830;-74
2024/03/11 06:09:02;;;;;;;9.30;6.10;;;;;;;9.64;85.81;99016.12;129280;1251;113509;-70
2024/03/11 06:12:07;;;;;;;13.20;8.00;;;;;;;9.68;85.57;99021.52;132182;1251;114511;-74
2024/03/11 06:15:12;;;;;;;10.70;7.50;;;;;;;9.71;85.84;99025.74;129325;1251;127705;-74
2024/03/11 06:18:17;;;;;;;11.30;6.20;;;;;;;9.78;85.68;99026.57;129279;1255;114686;-65
2024/03/11 06:21:23;;;;;;;12.70;7.30;;;;;;;9.84;85.63;99030.64;129513;1251;113896;-72
2024/03/11 06:24:28;;;;;;;5.60;4.00;;;;;;;9.88;85.71;99031.64;129321;1250;113763;-65
2024/03/11 06:27:32;;;;;;;11.50;6.20;;;;;;;9.90;85.60;99035.25;128991;1255;114431;-62
2024/03/11 06:30:47;;;;;;;11.40;6.20;;;;;;;9.93;85.51;99037.74;129231;1251;128176;-61
2024/03/11 06:33:53;;;;;;;10.40;6.80;;;;;;;9.96;85.46;99041.96;129230;1251;114777;-63
2024/03/11 06:37:01;;;;;;;11.40;6.70;;;;;;;10.04;85.39;99047.48;129809;1251;113346;-63
2024/03/11 06:40:06;;;;;;;9.90;7.40;;;;;;;10.10;85.25;99054.04;129076;1251;113397;-63
2024/03/11 06:43:15;;;;;;;7.10;4.60;;;;;;;10.16;85.28;99057.73;129260;1259;113337;-61
2024/03/11 06:46:19;;;;;;;9.40;6.10;;;;;;;10.19;84.98;99051.27;128893;1257;128671;-66
2024/03/11 06:49:36;;;;;;;9.70;7.00;;;;;;;10.23;85.20;99054.80;128713;1254;114702;-62
2024/03/11 06:52:45;;;;;;;11.40;7.20;;;;;;;10.28;85.28;99053.89;128618;1262;113613;-62
2024/03/11 06:55:51;;;;;;;14.00;6.60;;;;;;;10.32;85.01;99056.14;128632;1254;114708;-62
2024/03/11 06:58:58;;;;;;;7.30;4.40;;;;;;;10.36;85.17;99057.65;128802;1258;114227;-62
2024/03/11 07:02:07;;;;;;;11.60;7.70;;;;;;;10.40;85.14;99057.41;128933;1251;129398;-62
2024/03/11 07:05:18;;;;;;;11.00;6.50;;;;;;;10.44;84.78;99064.65;128813;1257;114687;-61
2024/03/11 07:08:24;;;;;;;7.50;4.50;;;;;;;10.46;84.76;99066.45;128837;1258;113506;-63
2024/03/11 07:11:30;;;;;;;6.70;4.80;;;;;;;10.49;84.78;99071.45;129011;1251;113492;-62
2024/03/11 07:14:37;;;;;;;10.90;7.90;;;;;;;10.51;84.46;99075.42;128936;1251;113465;-63
2024/03/11 07:17:46;;;;;;;8.90;4.80;;;;;;;10.55;84.62;99075.28;128859;1250;127819;-62
2024/03/11 07:20:52;;;;;;;11.50;5.70;;;;;;;10.58;84.52;99074.56;131925;1251;114699;-63
2024/03/11 07:24:05;;;;;;;9.50;5.80;;;;;;;10.60;84.15;99077.98;128825;1255;114505;-62
2024/03/11 07:27:16;;;;;;;9.30;6.60;;;;;;;10.61;84.15;99079.51;128963;1251;113212;-63
2024/03/11 07:30:24;;;;;;;9.50;6.10;;;;;;;10.64;84.11;99084.84;128718;1256;114703;-62
2024/03/11 07:33:30;;;;;;;11.80;6.90;;;;;;;10.69;83.96;99090.20;128923;1256;128671;-61
2024/03/11 07:36:35;;;;;;;10.60;6.40;;;;;;;10.74;84.04;99091.86;128771;1259;114728;-62
2024/03/11 07:39:41;;;;;;;11.30;6.60;;;;;;;10.79;84.24;99093.27;128932;1255;113457;-62
2024/03/11 07:42:49;;;;;;;11.60;7.30;;;;;;;10.85;83.96;99091.09;128913;1251;113288;-62
2024/03/11 07:45:59;;;;;;;12.00;7.80;;;;;;;10.90;83.84;99097.00;128833;1259;114060;-63
2024/03/11 07:49:05;;;;;;;9.90;6.50;;;;;;;10.97;83.88;99100.80;128976;1256;128652;-62
2024/03/11 07:52:12;;;;;;;10.20;6.50;;;;;;;11.02;83.77;99101.86;129029;1256;115333;-63
2024/03/11 07:55:28;;;;;;;9.40;6.80;;;;;;;11.07;83.43;99109.72;128961;1251;113584;-62
2024/03/11 07:58:36;;;;;;;9.60;6.30;;;;;;;11.12;83.42;99109.23;128864;1255;113511;-62
2024/03/11 08:01:43;;;;;;;12.50;6.40;;;;;;;11.23;83.31;99113.27;128849;1251;113513;-62
2024/03/11 08:04:55;;;;;;;10.70;7.30;;;;;;;11.31;82.94;99115.94;128862;1251;127807;-62
2024/03/11 08:08:08;;;;;;;9.90;5.90;;;;;;;11.39;82.63;99122.09;128932;1256;114842;-62
2024/03/11 08:11:14;;;;;;;12.70;8.10;;;;;;;11.47;82.72;99123.15;128876;1251;113524;-63
2024/03/11 08:14:20;;;;;;;11.70;7.50;;;;;;;11.55;82.11;99122.73;128988;1255;114456;-63
2024/03/11 08:17:24;;;;;;;10.90;8.50;;;;;;;11.67;82.11;99123.48;131810;1251;114596;-63
2024/03/11 08:20:28;;;;;;;12.60;7.60;;;;;;;11.84;82.00;99128.00;128856;1251;115298;-63
2024/03/11 08:23:31;;;;;;;14.30;7.90;;;;;;;11.95;81.54;99129.53;131994;1251;115291;-64
2024/03/11 08:26:37;;;;;;;12.30;6.80;;;;;;;12.02;81.47;99130.80;128856;1251;115310;-63
2024/03/11 08:29:40;;;;;;;12.40;6.90;;;;;;;12.10;81.05;99126.83;132003;1251;113130;-68
2024/03/11 08:32:47;;;;;;;13.60;7.40;;;;;;;12.17;80.67;99127.73;129193;1251;113398;-63
2024/03/11 08:35:50;;;;;;;11.40;7.90;;;;;;;12.27;80.82;99129.31;131644;1257;127869;-63
2024/03/11 08:38:53;;;;;;;7.50;4.70;;;;;;;12.40;80.80;99134.27;131957;1251;114699;-64
2024/03/11 08:41:57;;;;;;;12.90;8.30;;;;;;;12.53;80.11;99133.63;132015;1255;114553;-63
2024/03/11 08:45:00;;;;;;;8.80;6.60;;;;;;;12.69;79.77;99134.92;131890;1259;113335;-64
2024/03/11 08:48:06;;;;;;;12.80;8.30;;;;;;;12.88;79.75;99131.08;132004;1251;114517;-75
2024/03/11 08:51:11;;;;;;;;;;;;;;;13.18;79.52;99134.66;132069;1255;127803;-70
2024/03/11 08:54:24;;;;;;;11.90;7.80;;;;;;;13.45;78.57;99137.21;129105;1251;114696;-73
2024/03/11 08:57:30;;;;;;;13.20;6.30;;;;;;;13.71;79.08;99139.32;129151;1256;113315;-68
2024/03/11 09:00:36;;;;;;;8.60;5.70;;;;;;;14.01;78.29;99142.64;129268;1250;114773;-71
2024/03/11 09:03:42;;;;;;;17.50;7.80;;;;;;;14.23;77.53;99137.92;129151;1251;113293;-74
2024/03/11 09:06:45;;;;;;;12.10;7.70;;;;;;;14.45;77.18;99137.01;132153;1254;128860;-73
2024/03/11 09:09:56;;;;;;;5.70;4.30;;;;;;;14.66;76.93;99139.69;129226;1251;115365;-73
2024/03/11 09:13:02;;;;;;;9.40;6.20;;;;;;;14.88;75.70;99136.81;132223;1256;114661;-73
2024/03/11 09:16:07;;;;;;;10.70;7.50;;;;;;;15.08;75.19;99142.60;129280;1251;113744;-74
2024/03/11 09:19:14;;;;;;;8.80;6.00;;;;;;;15.38;75.36;99145.38;132144;1256;114651;-74
2024/03/11 09:22:26;;;;;;;9.80;7.30;;;;;;;15.60;73.50;99142.18;129385;1251;127688;-74
2024/03/11 09:25:31;;;;;;;13.80;6.80;;;;;;;15.69;73.87;99143.61;129353;1251;114702;-62
2024/03/11 09:28:37;;;;;;;13.30;6.90;;;;;;;15.84;73.45;99146.02;129099;1251;114691;-64
2024/03/11 09:31:45;;;;;;;12.30;7.30;;;;;;;15.99;72.65;99150.64;129622;1251;113386;-63
2024/03/11 09:34:50;;;;;;;10.60;6.00;;;;;;;16.06;72.35;99157.80;128993;1257;113158;-63
2024/03/11 09:37:58;;;;;;;7.70;5.40;;;;;;;16.13;72.43;99153.14;128793;1256;127899;-62
2024/03/11 09:41:09;;;;;;;9.90;7.30;;;;;;;16.16;71.05;99157.01;128978;1256;115351;-62
2024/03/11 09:44:18;;;;;;;13.10;6.10;;;;;;;16.14;71.40;99154.02;128907;1259;113384;-63
2024/03/11 09:47:30;;;;;;;9.00;6.40;;;;;;;16.13;70.76;99158.20;129060;1256;114695;-65
2024/03/11 09:50:41;;;;;;;9.60;6.70;;;;;;;16.08;70.22;99158.62;128890;1257;114057;-63
2024/03/11 09:53:55;;;;;;;11.60;5.90;;;;;;;16.06;69.78;99162.95;128886;1254;128277;-64
2024/03/11 09:56:58;;;;;;;10.30;6.40;;;;;;;16.08;69.37;99160.45;131913;1251;114785;-63
2024/03/11 10:00:12;;;;;;;12.90;6.60;;;;;;;16.11;69.49;99164.65;131673;1257;113196;-62
2024/03/11 10:03:16;;;;;;;14.40;7.10;;;;;;;16.27;69.96;99167.54;131808;1251;114559;-62
2024/03/11 10:06:27;;;;;;;8.10;5.70;;;;;;;16.45;69.70;99171.36;128863;1260;113188;-64
2024/03/11 10:09:44;;;;;;;11.10;6.60;;;;;;;16.60;69.23;99169.20;131667;1251;127786;-64
2024/03/11 10:12:54;;;;;;;11.40;6.30;;;;;;;16.74;68.97;99173.67;131924;1251;114801;-66
2024/03/11 10:16:14;;;;;;;10.40;6.40;;;;;;;16.81;68.04;99174.17;132328;1251;114520;-64
2024/03/11 10:19:21;;;;;;;8.80;4.70;;;;;;;16.82;67.84;99173.46;131917;1256;113642;-66
2024/03/11 10:22:26;;;;;;;6.60;4.80;;;;;;;16.81;67.53;99176.25;131928;1251;114528;-66
2024/03/11 10:25:34;;;;;;;10.00;6.30;;;;;;;16.73;66.47;99174.31;130392;1257;126984;-63
2024/03/11 10:28:39;;;;;;;8.80;5.30;;;;;;;16.68;67.23;99175.84;131944;1256;114692;-65
2024/03/11 10:31:42;;;;;;;10.90;6.40;;;;;;;16.63;66.51;99175.14;131772;1257;114029;-63
2024/03/11 10:34:56;;;;;;;10.40;6.10;;;;;;;16.51;66.29;99172.55;131971;1256;114756;-64
2024/03/11 10:38:18;;;;;;;11.40;6.50;;;;;;;16.48;66.63;99174.52;131934;1253;114025;-67
2024/03/11 10:41:25;;;;;;;11.20;6.10;;;;;;;16.53;66.91;99172.73;129529;1259;127838;-66
2024/03/11 10:44:33;;;;;;;15.70;6.50;;;;;;;16.56;66.55;99175.50;129619;1257;114713;-63
2024/03/11 10:47:40;;;;;;;11.00;6.10;;;;;;;16.58;66.46;99174.46;131955;1256;114635;-64
2024/03/11 10:50:43;;;;;;;;;;;;;;;16.65;66.70;99174.71;128946;1256;113564;-64
2024/03/11 10:53:48;;;;;;;11.30;6.10;;;;;;;16.75;66.92;99172.91;131983;1255;114731;-63
2024/03/11 10:56:53;;;;;;;9.70;5.50;;;;;;;16.81;65.93;99172.13;131901;1256;128784;-64
2024/03/11 10:59:56;;;;;;;12.10;6.10;;;;;;;16.83;65.35;99171.27;131883;1251;114713;-65
2024/03/11 11:03:12;;;;;;;11.40;5.80;;;;;;;16.83;65.56;99173.55;131787;1257;114061;-67
2024/03/11 11:06:27;;;;;;;10.00;5.90;;;;;;;16.94;65.99;99169.67;131949;1251;114590;-64
2024/03/11 11:09:38;;;;;;;12.00;6.00;;;;;;;17.00;65.16;99168.80;131941;1251;114712;-65
2024/03/11 11:12:44;;;;;;;10.50;6.40;;;;;;;17.04;65.14;99175.52;132025;1251;128846;-64
2024/03/11 11:15:48;;;;;;;12.30;6.40;;;;;;;17.07;65.25;99176.79;131979;1251;114817;-65
2024/03/11 11:18:53;;;;;;;9.60;5.80;;;;;;;17.13;64.86;99177.08;131933;1251;115282;-67
2024/03/11 11:21:56;;;;;;;8.30;5.30;;;;;;;17.15;64.95;99175.48;131730;1251;115047;-64
2024/03/11 11:24:59;;;;;;;10.70;6.00;;;;;;;17.16;64.36;99180.61;132023;1251;113413;-71
2024/03/11 11:28:02;;;;;;;11.10;5.50;;;;;;;17.15;64.48;99171.83;132001;1256;114714;-64
2024/03/11 11:31:25;;;;;;;9.10;5.60;;;;;;;17.10;63.83;99172.38;128847;1256;115269;-63
2024/03/11 11:34:50;;;;;;;9.50;5.40;;;;;;;16.96;63.64;99177.39;131839;1257;114680;-75
2024/03/11 11:37:57;;;;;;;7.60;4.40;;;;;;;16.92;64.00;99172.77;128962;1255;114714;-63
2024/03/11 11:41:35;;;;;;;9.80;5.90;;;;;;;16.90;64.00;99170.41;132087;1255;114499;-74
2024/03/11 11:44:39;;;;;;;8.40;4.70;;;;;;;16.90;63.80;99167.94;132143;1251;126591;-75
2024/03/11 11:47:46;;;;;;;10.90;6.50;;;;;;;16.87;63.69;99170.48;132131;1256;115263;-74
2024/03/11 11:50:51;;;;;;;8.00;5.20;;;;;;;16.86;63.83;99172.79;132118;1256;114645;-68
2024/03/11 11:53:57;;;;;;;9.50;5.20;;;;;;;16.88;63.75;99172.07;129705;1251;114709;-74
2024/03/11 11:57:15;;;;;;;12.40;4.80;;;;;;;16.89;63.83;99169.75;129158;1251;114434;-67
2024/03/11 12:00:21;;;;;;;12.90;5.50;;;;;;;16.90;63.36;99168.30;129200;1254;128391;-69
2024/03/11 12:03:32;;;;;;;10.20;6.10;;;;;;;16.84;63.40;99171.48;132226;1251;113484;-74
2024/03/11 12:06:42;;;;;;;13.60;6.20;;;;;;;16.86;63.42;99177.66;129142;1269;114687;-75
2024/03/11 12:09:50;;;;;;;9.60;5.10;;;;;;;16.89;63.59;99172.86;132181;1255;114722;-75
2024/03/11 12:13:02;;;;;;;8.00;5.40;;;;;;;16.92;63.33;99176.02;129169;1257;114734;-72
2024/03/11 12:16:11;;;;;;;11.70;6.60;;;;;;;16.96;63.31;99181.65;129362;1257;128750;-74
2024/03/11 12:19:16;;;;;;;10.60;5.10;;;;;;;16.99;63.06;99182.23;132259;1251;114809;-75
2024/03/11 12:22:20;;;;;;;9.30;6.60;;;;;;;17.01;62.93;99184.95;132128;1251;114571;-73
2024/03/11 12:25:28;;;;;;;8.40;5.10;;;;;;;17.04;63.10;99184.48;132011;1255;113361;-75
2024/03/11 12:28:33;;;;;;;10.60;4.60;;;;;;;17.11;63.28;99188.66;132063;1251;115307;-63
2024/03/11 12:31:56;;;;;;;8.80;5.20;;;;;;;17.15;62.87;99187.37;129831;1257;127903;-63
2024/03/11 12:35:05;;;;;;;9.20;5.50;;;;;;;17.17;62.42;99192.58;128965;1257;114919;-62
2024/03/11 12:38:10;;;;;;;11.40;5.30;;;;;;;17.19;62.63;99193.71;131352;1251;113238;-64
2024/03/11 12:41:39;;;;;;;11.60;5.20;;;;;;;17.21;62.51;99197.36;129327;1254;114677;-64
2024/03/11 12:44:55;;;;;;;12.90;5.70;;;;;;;17.19;62.07;99198.95;131939;1251;114773;-62
2024/03/11 12:48:01;;;;;;;8.40;5.30;;;;;;;17.16;61.62;99197.25;129017;1251;127785;-63
2024/03/11 12:51:05;;;;;;;11.90;5.50;;;;;;;17.11;61.66;99198.63;131919;1256;114628;-63
2024/03/11 12:54:24;;;;;;;7.80;4.50;;;;;;;17.11;61.63;99202.42;131957;1251;113906;-63
2024/03/11 12:57:30;;;;;;;12.00;6.40;;;;;;;17.09;61.87;99200.95;129178;1255;114788;-64
2024/03/11 13:00:34;;;;;;;11.30;4.80;;;;;;;17.04;61.70;99202.85;131915;1256;114020;-63
2024/03/11 13:03:43;;;;;;;10.40;6.30;;;;;;;16.95;61.39;99199.89;131866;1251;113147;-63
2024/03/11 13:06:47;;;;;;;7.70;5.10;;;;;;;16.81;61.56;99199.02;131634;1252;114722;-63
2024/03/11 13:09:59;;;;;;;10.00;5.80;;;;;;;16.74;61.96;99202.77;130465;1251;470322;-63
2024/03/11 13:13:16;;;;;;;9.70;5.70;;;;;;;16.67;61.96;99204.98;132025;1256;114642;-64
2024/03/11 13:16:18;;;;;;;12.20;5.30;;;;;;;16.59;62.09;99207.36;131995;1252;115164;-64
2024/03/11 13:19:25;;;;;;;9.60;5.60;;;;;;;16.50;62.18;99214.30;131872;1251;114693;-64
2024/03/11 13:22:30;;;;;;;8.60;5.10;;;;;;;16.41;62.11;99213.70;131913;1251;114725;-64
2024/03/11 13:25:35;;;;;;;12.60;5.90;;;;;;;16.27;62.28;99211.89;132021;1257;114767;-64
2024/03/11 13:28:38;;;;;;;9.20;4.80;;;;;;;16.17;62.49;99208.42;132093;1256;115329;-62
2024/03/11 13:31:43;;;;;;;8.80;5.40;;;;;;;16.09;62.61;99214.05;131990;1251;114671;-65
2024/03/11 13:34:46;;;;;;;9.00;5.60;;;;;;;16.03;62.76;99217.30;131879;1256;128887;-64
2024/03/11 13:37:49;;;;;;;9.80;6.00;;;;;;;16.03;63.08;99217.48;132029;1251;113334;-64
2024/03/11 13:40:52;;;;;;;9.90;5.40;;;;;;;16.05;63.08;99216.00;132075;1251;113351;-67
2024/03/11 13:43:55;;;;;;;8.90;5.60;;;;;;;16.08;62.92;99222.77;131932;1256;114654;-70
2024/03/11 13:47:00;;;;;;;8.30;4.90;;;;;;;16.14;63.11;99222.24;131910;1251;114647;-64
2024/03/11 13:50:04;;;;;;;9.10;5.50;;;;;;;16.32;63.23;99224.27;131781;1252;126688;-65
2024/03/11 13:53:09;;;;;;;11.40;5.30;;;;;;;16.53;62.97;99218.52;132116;1251;114696;-66
2024/03/11 13:56:12;;;;;;;9.40;4.80;;;;;;;16.78;62.61;99220.95;132003;1251;114815;-68
2024/03/11 13:59:20;;;;;;;9.40;5.20;;;;;;;17.04;62.72;99217.46;132097;1251;114120;-64
2024/03/11 14:02:25;;;;;;;12.90;5.80;;;;;;;17.32;62.14;99214.70;132029;1251;114801;-68
2024/03/11 14:05:29;;;;;;;8.80;4.50;;;;;;;17.54;62.13;99210.05;132106;1251;114708;-68
2024/03/11 14:08:32;;;;;;;9.30;5.50;;;;;;;17.77;62.12;99213.10;131872;1251;114680;-69
2024/03/11 14:11:35;;;;;;;11.50;5.70;;;;;;;17.94;61.26;99214.13;132056;1251;114722;-65
2024/03/11 14:14:40;;;;;;;10.20;5.40;;;;;;;18.05;61.14;99216.20;132063;1251;114693;-69
2024/03/11 14:17:45;;;;;;;9.30;4.10;;;;;;;18.11;60.98;99215.36;131988;1251;114799;-65
2024/03/11 14:20:48;;;;;;;7.90;4.80;;;;;;;18.15;60.63;99211.55;131939;1251;127780;-70